Airfield :







YOU CAN JOIN US ON...

 
LOGIN :

Register | Disclaimer

   EN    FR    IT 

 









Legend :    VFR   Marginal VFR   IFR   Intensive IFR   Very Intensive IFR
Visi :
Ceiling :
>= 8 km
>= 3000ft
5 to 8 km
1000 to 3000 ft
1500m to 5 km
500 to 1000 ft
800 to 1500m
200 to 500 ft
< 800m
< 200 ft
Symbols :   Thunderstorms  Fog  Heavy snow  Heavy precipitations  Wind > 20 kt






- Airport Elevation : 215 ft
- IATA code : MSS


KMSS - Massena International Richards Field

CURRENT METAR :
  • 040453Z AUTO 22005KT 10SM OVC085 17/13 A3010 RMK AO2 SLP191 T01720133 402440111

EXPIRED METARs :
  • 040353Z AUTO 23006KT 10SM BKN095 18/13 A3009 RMK AO2 SLP188 T01780133
  • 040253Z AUTO 22006KT 10SM FEW090 OVC100 19/13 A3008 RMK AO2 SLP184 T01890128 53008

TAF KMSS
Valid from the 04 at 00:00 until the 05 at 00:00 UTC


032337Z 0400/0424 27010KT P6SM FEW200
FM040300 VRB03KT P6SM SCT120
FM041600 27007KT P6SM SCT120
FM042300 24006KT P6SM BKN080
KZBW FIR / North America



MET'MAP, your aeronautical weather chart ! - Copyright ORBIFLY December 2007 - Disclaimer

ORBIFLY MET'MAP TEAM :

Programming & Development : Alexandra Zaïnal
Original concept : Baudouin d'Aumeries
Technical & hardware support : Manuel Goepfert
Assistance : Marc-Olivier Méhu




SOURCES & CREDITS :

   NOAA